Time;durP1;ratioP1;P1;durP2;ratioP2;P2;SDS_P1;SDS_P2;PMS_P1;PMS_P2;Temp;Humidity;BMP_temperature;BMP_pressure;BME280_temperature;BME280_humidity;BME280_pressure;Samples;Min_cycle;Max_cycle;Signal;HPM_P1;HPM_P2
2022/11/07 00:02:08;;;;;;;1999.90;999.90;;;15.40;99.90;;;;;;5035216;28;20465;-80
2022/11/07 00:04:34;;;;;;;1999.90;999.90;;;15.50;99.90;;;;;;5033390;28;20049;-79
2022/11/07 00:07:00;;;;;;;1999.90;999.90;;;15.50;99.90;;;;;;4995073;28;20508;-80
2022/11/07 00:09:27;;;;;;;1999.90;999.90;;;15.50;99.90;;;;;;4995343;28;20397;-80
2022/11/07 00:11:53;;;;;;;1999.90;999.90;;;15.40;99.90;;;;;;4993827;28;20440;-79
2022/11/07 00:14:19;;;;;;;1999.90;999.90;;;15.40;99.90;;;;;;5014942;28;20079;-80
2022/11/07 00:16:46;;;;;;;1999.90;999.90;;;15.40;99.90;;;;;;5014683;28;20025;-80
2022/11/07 00:19:14;;;;;;;1999.90;999.90;;;15.30;99.90;;;;;;5015176;28;20457;-80
2022/11/07 00:21:40;;;;;;;1999.90;999.90;;;15.30;99.90;;;;;;5014290;28;20018;-80
2022/11/07 00:24:07;;;;;;;1999.90;999.90;;;15.40;99.90;;;;;;5014399;28;20033;-80
2022/11/07 00:26:33;;;;;;;1999.90;999.90;;;15.40;99.90;;;;;;5014673;28;20022;-80
2022/11/07 00:28:58;;;;;;;1999.90;999.90;;;15.40;99.90;;;;;;5014276;28;20400;-81
2022/11/07 00:31:24;;;;;;;1999.90;999.90;;;15.50;99.90;;;;;;5014477;28;20021;-80
2022/11/07 00:33:50;;;;;;;1999.90;999.90;;;15.50;99.90;;;;;;5014504;28;20026;-80
2022/11/07 00:36:25;;;;;;;1999.90;999.90;;;15.50;99.90;;;;;;5014584;28;20026;-80
2022/11/07 00:38:50;;;;;;;1999.90;999.90;;;15.50;99.90;;;;;;5013677;28;20034;-80
2022/11/07 00:41:16;;;;;;;1999.90;999.90;;;15.50;99.90;;;;;;4995709;28;20030;-81
2022/11/07 00:43:42;;;;;;;1999.90;999.90;;;15.50;99.90;;;;;;5013891;28;20026;-80
2022/11/07 00:46:10;;;;;;;1999.90;999.90;;;15.60;99.90;;;;;;5014481;28;20037;-80
2022/11/07 00:48:36;;;;;;;1999.90;999.90;;;15.60;99.90;;;;;;5013922;28;20466;-80
2022/11/07 00:51:10;;;;;;;1999.90;999.90;;;15.70;99.90;;;;;;5011037;28;20141;-81
2022/11/07 00:53:36;;;;;;;1999.90;999.90;;;15.70;99.90;;;;;;5013006;28;20104;-80
2022/11/07 00:56:04;;;;;;;1999.90;999.90;;;15.70;99.90;;;;;;5014304;28;20038;-80
2022/11/07 00:58:30;;;;;;;1999.90;999.90;;;15.80;99.90;;;;;;5013602;28;20524;-80
2022/11/07 01:00:56;;;;;;;1999.90;999.90;;;15.90;99.90;;;;;;5013790;28;20018;-79
2022/11/07 01:06:07;;;;;;;1999.90;999.90;;;16.00;99.90;;;;;;5001163;28;20029;-80
2022/11/07 01:08:32;;;;;;;1999.90;999.90;;;16.00;99.90;;;;;;4993863;28;20022;-80
2022/11/07 01:10:58;;;;;;;1999.90;999.90;;;16.00;99.90;;;;;;4993955;28;20450;-80
2022/11/07 01:13:24;;;;;;;1999.90;999.90;;;15.90;99.90;;;;;;4993788;28;20526;-80
2022/11/07 01:15:50;;;;;;;1999.90;999.90;;;15.90;99.90;;;;;;4993735;28;20133;-80
2022/11/07 01:18:16;;;;;;;1999.90;999.90;;;15.90;99.90;;;;;;4994159;28;20035;-80
2022/11/07 01:20:42;;;;;;;1999.90;999.90;;;15.90;99.90;;;;;;4993737;28;20501;-80
2022/11/07 01:23:08;;;;;;;1999.90;999.90;;;15.90;99.90;;;;;;4993349;28;20023;-79
2022/11/07 01:25:37;;;;;;;1999.90;999.90;;;15.90;99.90;;;;;;4993487;28;20036;-80
2022/11/07 01:28:05;;;;;;;1999.90;999.90;;;15.90;99.90;;;;;;4976562;28;20022;-80
2022/11/07 01:30:30;;;;;;;1999.90;999.90;;;15.90;99.90;;;;;;4995469;28;20026;-79
2022/11/07 01:32:56;;;;;;;1999.90;999.90;;;16.00;99.90;;;;;;4995464;28;20508;-81
2022/11/07 01:35:22;;;;;;;1999.90;999.90;;;15.90;99.90;;;;;;5013234;28;20505;-81
2022/11/07 01:37:47;;;;;;;1999.90;999.90;;;15.90;99.90;;;;;;5013142;28;20542;-80
2022/11/07 01:40:13;;;;;;;1999.90;999.90;;;15.90;99.90;;;;;;5013445;28;20061;-80
2022/11/07 01:42:39;;;;;;;1999.90;999.90;;;15.90;99.90;;;;;;4995239;28;20037;-79
2022/11/07 01:45:05;;;;;;;1999.90;999.90;;;15.90;99.90;;;;;;5013296;28;20045;-80
2022/11/07 01:47:37;;;;;;;1999.90;999.90;;;15.90;99.90;;;;;;5012992;28;20033;-80
2022/11/07 01:50:06;;;;;;;1999.90;999.90;;;15.90;99.90;;;;;;5012788;28;20547;-80
2022/11/07 01:52:38;;;;;;;1999.90;999.90;;;15.90;99.90;;;;;;4995187;28;20022;-80
2022/11/07 01:55:09;;;;;;;1999.90;999.90;;;15.90;99.90;;;;;;4994405;28;20085;-80
2022/11/07 01:57:56;;;;;;;1999.90;999.90;;;15.90;99.90;;;;;;5012778;28;20064;-80
2022/11/07 02:00:23;;;;;;;1999.90;999.90;;;15.90;99.90;;;;;;5013060;28;20034;-80
2022/11/07 02:03:00;;;;;;;1999.90;999.90;;;16.00;99.90;;;;;;5012909;28;20025;-80
2022/11/07 02:05:34;;;;;;;1999.90;999.90;;;16.00;99.90;;;;;;5004605;28;20089;-80
2022/11/07 02:08:03;;;;;;;1999.90;999.90;;;16.00;99.90;;;;;;4975198;28;20037;-80
2022/11/07 02:10:29;;;;;;;1999.90;999.90;;;16.00;99.90;;;;;;4998716;28;20485;-80
2022/11/07 02:12:57;;;;;;;1999.90;999.90;;;16.00;99.90;;;;;;4995013;28;20432;-80
2022/11/07 02:15:25;;;;;;;1999.90;999.90;;;16.00;99.90;;;;;;5012816;28;20469;-80
2022/11/07 02:17:51;;;;;;;1999.90;999.90;;;15.90;99.90;;;;;;5012772;28;20055;-80
2022/11/07 02:20:17;;;;;;;1999.90;999.90;;;15.80;99.90;;;;;;5012755;28;20057;-80
2022/11/07 02:22:56;;;;;;;1999.90;999.90;;;15.90;99.90;;;;;;4994437;28;20501;-80
2022/11/07 02:25:22;;;;;;;1999.90;999.90;;;15.90;99.90;;;;;;5012303;28;20029;-80
2022/11/07 02:28:09;;;;;;;1999.90;999.90;;;16.00;99.90;;;;;;5012795;28;20092;-81
2022/11/07 02:30:34;;;;;;;1999.90;999.90;;;16.00;99.90;;;;;;5012134;28;20493;-80
2022/11/07 02:33:01;;;;;;;1999.90;999.90;;;16.00;99.90;;;;;;5012310;28;20029;-80
2022/11/07 02:35:44;;;;;;;1999.90;999.90;;;16.00;99.90;;;;;;5012375;28;20517;-80
2022/11/07 02:38:18;;;;;;;1999.90;999.90;;;16.00;99.90;;;;;;5012301;28;20026;-80
2022/11/07 02:40:46;;;;;;;1999.90;999.90;;;16.10;99.90;;;;;;5012269;28;20045;-80
2022/11/07 02:43:14;;;;;;;1999.90;999.90;;;16.10;99.90;;;;;;4995071;28;20389;-80
2022/11/07 02:45:43;;;;;;;1999.90;999.90;;;16.10;99.90;;;;;;4975364;28;20037;-80
2022/11/07 02:48:09;;;;;;;1999.90;999.90;;;16.00;99.90;;;;;;4992784;28;20030;-80
2022/11/07 02:50:35;;;;;;;1999.90;999.90;;;16.00;99.90;;;;;;4992745;28;20034;-80
2022/11/07 02:53:00;;;;;;;1999.90;999.90;;;16.00;99.90;;;;;;4992041;28;20037;-80
2022/11/07 02:55:26;;;;;;;1999.90;999.90;;;16.00;99.90;;;;;;4991993;28;20109;-80
2022/11/07 02:57:52;;;;;;;1999.90;999.90;;;16.00;99.90;;;;;;4981857;28;20038;-80
2022/11/07 03:00:17;;;;;;;1999.90;999.90;;;16.00;99.90;;;;;;5012407;28;20033;-80
2022/11/07 03:02:45;;;;;;;1999.90;999.90;;;16.10;99.90;;;;;;5018593;28;20014;-79
2022/11/07 03:05:15;;;;;;;1999.90;999.90;;;16.00;99.90;;;;;;5036189;28;20034;-79
2022/11/07 03:07:43;;;;;;;1999.90;999.90;;;16.00;99.90;;;;;;4999024;28;20030;-80
2022/11/07 03:10:09;;;;;;;1999.90;999.90;;;16.00;99.90;;;;;;4996383;28;20053;-80
2022/11/07 03:12:35;;;;;;;1999.90;999.90;;;16.00;99.90;;;;;;4996351;28;20398;-80
2022/11/07 03:15:01;;;;;;;1999.90;999.90;;;15.90;99.90;;;;;;4996582;28;20022;-79
2022/11/07 03:17:26;;;;;;;1999.90;999.90;;;15.90;99.90;;;;;;4996198;28;20029;-80
2022/11/07 03:19:52;;;;;;;1999.90;999.90;;;15.90;99.90;;;;;;4996276;28;20034;-79
2022/11/07 03:22:17;;;;;;;1999.90;999.90;;;15.90;99.90;;;;;;5012485;28;20053;-80
2022/11/07 03:24:43;;;;;;;1999.90;999.90;;;15.90;99.90;;;;;;5015982;28;20030;-80
2022/11/07 03:27:09;;;;;;;1999.90;999.90;;;16.00;99.90;;;;;;5015767;28;20026;-80
2022/11/07 03:29:34;;;;;;;1999.90;999.90;;;16.00;99.90;;;;;;5015153;28;20030;-80
2022/11/07 03:32:00;;;;;;;1999.90;999.90;;;16.00;99.90;;;;;;5015691;28;20026;-80
2022/11/07 03:34:25;;;;;;;1999.90;999.90;;;16.00;99.90;;;;;;5015675;28;20021;-80
2022/11/07 03:36:51;;;;;;;1999.90;999.90;;;16.00;99.90;;;;;;5015440;28;20030;-80
2022/11/07 03:39:17;;;;;;;1999.90;999.90;;;15.90;99.90;;;;;;5015470;28;20393;-81
2022/11/07 03:41:43;;;;;;;1999.90;999.90;;;15.90;99.90;;;;;;5014739;28;20061;-79
2022/11/07 03:44:08;;;;;;;1999.90;999.90;;;15.90;99.90;;;;;;5014743;28;20485;-80
2022/11/07 03:46:34;;;;;;;1999.90;999.90;;;15.90;99.90;;;;;;5015550;28;20036;-80
2022/11/07 03:49:00;;;;;;;1999.90;999.90;;;15.80;99.90;;;;;;4997549;28;20022;-80
2022/11/07 03:51:25;;;;;;;1999.90;999.90;;;15.70;99.90;;;;;;4997086;28;20029;-81
2022/11/07 03:53:51;;;;;;;1999.90;999.90;;;15.80;99.90;;;;;;4997105;28;20049;-80
2022/11/07 03:56:17;;;;;;;1999.90;999.90;;;15.90;99.90;;;;;;4997358;28;20061;-80
2022/11/07 03:58:42;;;;;;;1999.90;999.90;;;15.80;99.90;;;;;;5014971;28;20026;-80
2022/11/07 04:01:10;;;;;;;1999.90;999.90;;;15.80;99.90;;;;;;5015140;28;20022;-80
2022/11/07 04:03:36;;;;;;;1999.90;999.90;;;15.80;99.90;;;;;;5014919;28;20029;-80
2022/11/07 04:06:01;;;;;;;1999.90;999.90;;;15.80;99.90;;;;;;5002612;28;20543;-80
2022/11/07 04:08:27;;;;;;;1999.90;999.90;;;15.80;99.90;;;;;;4995408;28;20542;-80
2022/11/07 04:10:53;;;;;;;1999.90;999.90;;;15.80;99.90;;;;;;5007519;28;20468;-81
2022/11/07 04:18:46;;;;;;;1999.90;999.90;;;15.80;99.90;;;;;;5014627;28;20518;-80
2022/11/07 04:21:12;;;;;;;1999.90;999.90;;;15.70;99.90;;;;;;5014267;28;20037;-80
2022/11/07 04:23:38;;;;;;;1999.90;999.90;;;15.70;99.90;;;;;;5014362;28;20032;-81
2022/11/07 04:28:47;;;;;;;1999.90;999.90;;;15.70;99.90;;;;;;5014423;28;20069;-80
2022/11/07 04:31:13;;;;;;;1999.90;999.90;;;15.70;99.90;;;;;;5014565;28;20029;-80
2022/11/07 04:33:38;;;;;;;1999.90;999.90;;;15.80;99.90;;;;;;4996696;28;20033;-80
2022/11/07 04:36:04;;;;;;;1999.90;999.90;;;15.70;99.90;;;;;;5014429;28;20105;-80
2022/11/07 04:38:30;;;;;;;1999.90;999.90;;;15.80;99.90;;;;;;5014350;28;20452;-80
2022/11/07 04:40:56;;;;;;;1999.90;999.90;;;15.80;99.90;;;;;;4996632;28;20018;-80
2022/11/07 04:43:24;;;;;;;1999.90;999.90;;;15.80;99.90;;;;;;4996658;28;20477;-80
2022/11/07 04:45:50;;;;;;;1999.90;999.90;;;15.80;99.90;;;;;;4996704;28;20374;-80
2022/11/07 04:48:16;;;;;;;1999.90;999.90;;;15.80;99.90;;;;;;5014173;28;20544;-80
2022/11/07 04:50:42;;;;;;;1999.90;999.90;;;15.80;99.90;;;;;;4979116;28;20121;-80
2022/11/07 04:53:13;;;;;;;1999.90;999.90;;;15.80;99.90;;;;;;5013567;28;20040;-80
2022/11/07 04:55:38;;;;;;;1999.90;999.90;;;15.80;99.90;;;;;;5013974;28;20029;-80
2022/11/07 04:58:04;;;;;;;1999.90;999.90;;;15.80;99.90;;;;;;5013265;28;20029;-80
2022/11/07 05:00:30;;;;;;;1999.90;999.90;;;15.90;99.90;;;;;;5013961;28;20034;-81
2022/11/07 05:02:55;;;;;;;1999.90;999.90;;;15.80;99.90;;;;;;5013672;28;20053;-80
2022/11/07 05:05:21;;;;;;;1999.90;999.90;;;15.90;99.90;;;;;;5006791;28;20034;-80
2022/11/07 05:07:47;;;;;;;1999.90;999.90;;;15.80;99.90;;;;;;4994091;28;20082;-81
2022/11/07 05:10:22;;;;;;;1999.90;999.90;;;15.80;99.90;;;;;;5002664;28;20033;-80
2022/11/07 05:12:47;;;;;;;1999.90;999.90;;;15.70;99.90;;;;;;4995606;28;20040;-80
2022/11/07 05:15:14;;;;;;;1999.90;999.90;;;15.70;99.90;;;;;;5013734;28;20042;-81
2022/11/07 05:17:40;;;;;;;1999.90;999.90;;;15.70;99.90;;;;;;5013577;28;20374;-80
2022/11/07 05:20:06;;;;;;;1999.90;999.90;;;15.80;99.90;;;;;;4996064;28;20026;-80
2022/11/07 05:25:16;;;;;;;1999.90;999.90;;;15.80;99.90;;;;;;5013116;28;20021;-80
2022/11/07 05:27:42;;;;;;;1999.90;999.90;;;15.70;99.90;;;;;;5013876;28;20437;-80
2022/11/07 05:30:09;;;;;;;1999.90;999.90;;;15.80;99.90;;;;;;5013260;28;20030;-80
2022/11/07 05:32:37;;;;;;;1999.90;999.90;;;15.80;99.90;;;;;;4995742;28;20033;-80
2022/11/07 05:35:06;;;;;;;1999.90;999.90;;;15.80;99.90;;;;;;5013620;28;20037;-80
2022/11/07 05:37:31;;;;;;;1999.90;999.90;;;15.80;99.90;;;;;;4995597;28;20041;-80
2022/11/07 05:39:57;;;;;;;1999.90;999.90;;;15.80;99.90;;;;;;5013396;28;20080;-80
2022/11/07 05:42:22;;;;;;;1999.90;999.90;;;15.70;99.90;;;;;;4995911;28;20037;-80
2022/11/07 05:44:48;;;;;;;1999.90;999.90;;;15.70;99.90;;;;;;5013238;28;20025;-80
2022/11/07 05:47:14;;;;;;;1999.90;999.90;;;15.80;99.90;;;;;;5013063;28;20029;-80
2022/11/07 05:49:39;;;;;;;1999.90;999.90;;;15.70;99.90;;;;;;5018983;28;20014;-76
2022/11/07 05:52:05;;;;;;;1999.90;999.90;;;15.80;99.90;;;;;;5032752;28;20021;-80
2022/11/07 05:54:31;;;;;;;1999.90;999.90;;;15.80;99.90;;;;;;5012211;28;20041;-80
2022/11/07 05:56:58;;;;;;;1999.90;999.90;;;15.90;99.90;;;;;;5011577;28;20117;-80
2022/11/07 05:59:24;;;;;;;1999.90;999.90;;;15.90;99.90;;;;;;5012295;28;20029;-80
2022/11/07 06:01:51;;;;;;;1999.90;999.90;;;15.80;99.90;;;;;;5012786;28;20037;-80
2022/11/07 06:04:17;;;;;;;1999.90;999.90;;;15.80;99.90;;;;;;5013081;28;20025;-80
2022/11/07 06:06:43;;;;;;;1999.90;999.90;;;15.80;99.90;;;;;;5012399;28;20479;-80
2022/11/07 06:09:08;;;;;;;1999.90;999.90;;;15.90;99.90;;;;;;5012395;28;20084;-80
2022/11/07 06:11:34;;;;;;;1999.90;999.90;;;15.80;99.90;;;;;;5012605;28;20034;-80
2022/11/07 06:14:00;;;;;;;1999.90;999.90;;;15.90;99.90;;;;;;5012614;28;20124;-80
2022/11/07 06:16:26;;;;;;;1999.90;999.90;;;15.90;99.90;;;;;;5012850;28;20050;-81
2022/11/07 06:18:52;;;;;;;1999.90;999.90;;;15.90;99.90;;;;;;5012607;28;20029;-80
2022/11/07 06:21:17;;;;;;;1999.90;999.90;;;15.90;99.90;;;;;;5012182;28;20033;-81
2022/11/07 06:23:44;;;;;;;1999.90;999.90;;;15.90;99.90;;;;;;4993876;28;20057;-80
2022/11/07 06:26:10;;;;;;;1999.90;999.90;;;15.90;99.90;;;;;;4994865;28;20022;-80
2022/11/07 06:28:36;;;;;;;1999.90;999.90;;;15.90;99.90;;;;;;5012489;28;20026;-80
2022/11/07 06:31:03;;;;;;;1999.90;999.90;;;15.90;99.90;;;;;;5018814;28;20469;-80
2022/11/07 06:33:28;;;;;;;1999.90;999.90;;;15.90;99.90;;;;;;4994388;28;20401;-80
2022/11/07 06:35:55;;;;;;;1999.90;999.90;;;15.90;99.90;;;;;;5010801;28;20026;-80
2022/11/07 06:38:20;;;;;;;1999.90;999.90;;;16.00;99.90;;;;;;5011403;28;20121;-80
2022/11/07 06:40:46;;;;;;;1999.90;999.90;;;16.00;99.90;;;;;;4994146;28;20121;-80
2022/11/07 06:43:17;;;;;;;1999.90;999.90;;;16.00;99.90;;;;;;4991210;28;20046;-80
2022/11/07 06:45:44;;;;;;;1999.90;999.90;;;16.00;99.90;;;;;;4974984;28;20034;-80
2022/11/07 06:48:11;;;;;;;1999.90;999.90;;;16.00;99.90;;;;;;4992780;28;20030;-80
2022/11/07 06:50:37;;;;;;;1999.90;999.90;;;16.00;99.90;;;;;;5006651;28;20026;-79
2022/11/07 06:53:11;;;;;;;1999.90;999.90;;;16.00;99.90;;;;;;5017249;28;20025;-80
2022/11/07 06:55:38;;;;;;;1999.90;999.90;;;16.00;99.90;;;;;;5010832;28;20018;-80
2022/11/07 06:58:04;;;;;;;1999.90;999.90;;;16.10;99.90;;;;;;5008241;28;20143;-80
2022/11/07 07:00:35;;;;;;;1999.90;999.90;;;16.00;99.90;;;;;;5008860;28;20084;-80
2022/11/07 07:03:01;;;;;;;1999.90;999.90;;;16.10;99.90;;;;;;4990653;28;20466;-79
2022/11/07 07:05:26;;;;;;;1999.90;999.90;;;16.00;99.90;;;;;;4973493;28;20037;-79
2022/11/07 07:07:54;;;;;;;1999.90;999.90;;;16.00;99.90;;;;;;4990749;28;20026;-80
2022/11/07 07:10:19;;;;;;;1999.90;999.90;;;15.90;99.90;;;;;;5009160;28;20045;-79
2022/11/07 07:12:45;;;;;;;1999.90;999.90;;;15.90;99.90;;;;;;4990126;28;20125;-80
2022/11/07 07:15:11;;;;;;;1999.90;999.90;;;15.80;99.90;;;;;;5010028;28;20497;-81
2022/11/07 07:17:36;;;;;;;1999.90;999.90;;;15.80;99.90;;;;;;4991217;28;20034;-79
2022/11/07 07:20:03;;;;;;;1999.90;999.90;;;15.90;99.90;;;;;;5015689;28;20437;-80
2022/11/07 07:22:29;;;;;;;1999.90;999.90;;;15.80;99.90;;;;;;5013982;28;20092;-80
2022/11/07 07:24:55;;;;;;;1999.90;999.90;;;15.80;99.90;;;;;;5009537;28;20026;-79
2022/11/07 07:27:20;;;;;;;1999.90;999.90;;;15.80;99.90;;;;;;5014873;28;20025;-80
2022/11/07 07:29:46;;;;;;;1999.90;999.90;;;15.80;99.90;;;;;;5007989;28;20048;-79
2022/11/07 07:32:12;;;;;;;1999.90;999.90;;;15.90;99.90;;;;;;5026452;28;20025;-79
2022/11/07 07:34:37;;;;;;;1999.90;999.90;;;15.80;99.90;;;;;;5029585;28;20085;-80
2022/11/07 07:37:03;;;;;;;1999.90;999.90;;;15.90;99.90;;;;;;5028058;28;20025;-79
2022/11/07 07:39:30;;;;;;;1999.90;999.90;;;15.90;99.90;;;;;;5021961;28;20373;-79
2022/11/07 07:41:55;;;;;;;1999.90;999.90;;;15.90;99.90;;;;;;5020858;28;20053;-79
2022/11/07 07:44:21;;;;;;;1999.90;999.90;;;15.90;99.90;;;;;;5009274;28;20054;-79
2022/11/07 07:46:47;;;;;;;1999.90;999.90;;;15.90;99.90;;;;;;5008700;28;20076;-80
2022/11/07 07:49:13;;;;;;;1999.90;999.90;;;15.90;99.90;;;;;;4991473;28;20474;-80
2022/11/07 07:51:38;;;;;;;1999.90;999.90;;;16.00;99.90;;;;;;5012493;28;20104;-80
2022/11/07 07:54:04;;;;;;;1999.90;999.90;;;16.00;99.90;;;;;;4991877;28;20072;-80
2022/11/07 07:56:30;;;;;;;1999.90;999.90;;;16.00;99.90;;;;;;4993300;28;20134;-80
2022/11/07 07:58:55;;;;;;;1999.90;999.90;;;16.00;99.90;;;;;;4991854;28;20042;-80
2022/11/07 08:01:21;;;;;;;1999.90;999.90;;;16.10;99.90;;;;;;5004298;28;20034;-81
2022/11/07 08:03:46;;;;;;;1999.90;999.90;;;16.10;99.90;;;;;;4993584;28;20026;-76
2022/11/07 08:06:12;;;;;;;1999.90;999.90;;;16.20;99.90;;;;;;4993117;28;20385;-77
2022/11/07 08:08:38;;;;;;;1999.90;999.90;;;16.20;99.90;;;;;;5001886;28;20527;-77
2022/11/07 08:11:06;;;;;;;1999.90;999.90;;;16.20;99.90;;;;;;4993950;28;20030;-80
2022/11/07 08:13:32;;;;;;;1999.90;999.90;;;16.30;99.90;;;;;;4992379;28;20551;-79
2022/11/07 08:15:57;;;;;;;1999.90;999.90;;;16.40;99.90;;;;;;4989117;28;20062;-81
2022/11/07 08:18:23;;;;;;;1999.90;999.90;;;16.40;99.90;;;;;;4991861;28;20031;-80
2022/11/07 08:20:51;;;;;;;1999.90;999.90;;;16.40;99.90;;;;;;4993102;28;20045;-79
2022/11/07 08:23:17;;;;;;;1999.90;999.90;;;16.50;99.90;;;;;;4991530;28;20584;-78
2022/11/07 08:25:52;;;;;;;1999.90;999.90;;;16.60;99.90;;;;;;4988160;28;20556;-80
2022/11/07 08:28:19;;;;;;;1999.90;999.90;;;16.60;99.90;;;;;;4989603;28;20398;-79
2022/11/07 08:30:45;;;;;;;1999.90;999.90;;;16.60;99.90;;;;;;4999247;28;20132;-81
2022/11/07 08:33:11;;;;;;;1999.90;999.90;;;16.60;99.90;;;;;;5000485;28;20097;-78
2022/11/07 08:35:37;;;;;;;1999.90;999.90;;;16.70;99.90;;;;;;4996699;28;20141;-77
2022/11/07 08:38:03;;;;;;;1999.90;999.90;;;16.70;99.90;;;;;;4990907;28;20137;-76
2022/11/07 08:40:28;;;;;;;1999.90;999.90;;;16.70;99.90;;;;;;4986874;28;20328;-79
2022/11/07 08:42:59;;;;;;;1999.90;999.90;;;16.80;99.90;;;;;;4991534;28;20548;-79
2022/11/07 08:45:24;;;;;;;1999.90;999.90;;;16.80;99.90;;;;;;4993822;28;20798;-79
2022/11/07 08:47:54;;;;;;;1999.90;999.90;;;16.80;99.90;;;;;;4994993;28;20049;-80
2022/11/07 08:50:20;;;;;;;1999.90;999.90;;;16.90;99.90;;;;;;4999793;28;20177;-80
2022/11/07 08:52:45;;;;;;;1999.90;999.90;;;17.00;99.90;;;;;;4992001;28;20120;-82
2022/11/07 08:55:11;;;;;;;1999.90;999.90;;;17.00;99.90;;;;;;5009201;28;20132;-80
2022/11/07 08:57:36;;;;;;;1999.90;999.90;;;17.00;99.90;;;;;;5010600;28;20725;-81
2022/11/07 09:00:04;;;;;;;1999.90;999.90;;;17.10;99.90;;;;;;4996223;28;20037;-81
2022/11/07 09:02:29;;;;;;;1999.90;999.90;;;17.10;99.90;;;;;;5009759;28;20389;-80
2022/11/07 09:04:55;;;;;;;1999.90;999.90;;;17.10;99.90;;;;;;5014953;28;20032;-81
2022/11/07 09:07:20;;;;;;;1999.90;999.90;;;17.10;99.90;;;;;;5011027;28;20324;-80
2022/11/07 09:09:46;;;;;;;1999.90;999.90;;;17.00;99.90;;;;;;5014406;28;20026;-81
2022/11/07 09:12:12;;;;;;;1999.90;999.90;;;17.10;99.90;;;;;;5010879;28;20029;-79
2022/11/07 09:14:37;;;;;;;1999.90;999.90;;;17.10;99.90;;;;;;5009593;28;20018;-80
2022/11/07 09:17:03;;;;;;;1999.90;999.90;;;17.10;99.90;;;;;;5010182;28;20044;-80
2022/11/07 09:19:29;;;;;;;1999.90;999.90;;;17.20;99.90;;;;;;5010581;28;20382;-80
2022/11/07 09:21:56;;;;;;;1999.90;999.90;;;17.30;99.90;;;;;;5020505;28;20030;-81
2022/11/07 09:24:21;;;;;;;1999.90;999.90;;;17.50;99.90;;;;;;5014434;28;20037;-80
2022/11/07 09:26:47;;;;;;;1999.90;999.90;;;17.60;99.90;;;;;;5015712;28;20030;-79
2022/11/07 09:29:13;;;;;;;1999.90;999.90;;;17.70;99.90;;;;;;5008512;28;20125;-82
2022/11/07 09:31:38;;;;;;;1999.90;999.90;;;17.70;99.90;;;;;;5007755;28;20064;-81
2022/11/07 09:34:06;;;;;;;1999.90;999.90;;;17.80;99.90;;;;;;5014816;28;20385;-81
2022/11/07 09:36:32;;;;;;;1999.90;999.90;;;17.80;99.90;;;;;;4995395;28;20087;-81
2022/11/07 09:38:59;;;;;;;1999.90;999.90;;;17.90;99.90;;;;;;5008709;28;20042;-83
2022/11/07 09:41:42;;;;;;;1999.90;999.90;;;17.80;99.90;;;;;;5007990;28;20026;-79
2022/11/07 09:44:19;;;;;;;1999.90;999.90;;;17.70;99.90;;;;;;5008227;28;20037;-79
2022/11/07 09:46:56;;;;;;;1999.90;999.90;;;17.80;99.90;;;;;;5010136;28;20036;-80
2022/11/07 09:49:38;;;;;;;1999.90;999.90;;;18.00;99.90;;;;;;4990507;28;20515;-81
2022/11/07 09:52:41;;;;;;;1999.90;999.90;;;18.20;99.90;;;;;;5018719;28;20033;-82
2022/11/07 09:55:13;;;;;;;1999.90;999.90;;;18.40;99.90;;;;;;5010714;28;20420;-80
2022/11/07 09:57:39;;;;;;;1999.90;999.90;;;18.20;99.90;;;;;;5014028;28;20025;-81
2022/11/07 10:00:14;;;;;;;1999.90;999.90;;;18.10;99.90;;;;;;5029276;28;20155;-83
2022/11/07 10:02:45;;;;;;;1999.90;999.90;;;18.00;99.90;;;;;;5028506;28;20425;-83
2022/11/07 10:05:17;;;;;;;1999.90;999.90;;;18.10;99.90;;;;;;4999757;28;20026;-81
2022/11/07 10:07:50;;;;;;;1999.90;999.90;;;18.20;99.90;;;;;;5005448;28;20112;-81
2022/11/07 10:10:54;;;;;;;1999.90;999.90;;;18.20;99.90;;;;;;5006276;28;20405;-81
2022/11/07 10:13:31;;;;;;;1999.90;999.90;;;18.20;99.90;;;;;;5009281;28;20030;-81
2022/11/07 10:16:05;;;;;;;1999.90;999.90;;;18.20;99.90;;;;;;5016810;28;20408;-80
2022/11/07 10:19:09;;;;;;;1999.90;999.90;;;18.10;99.90;;;;;;5008274;28;20033;-81
2022/11/07 10:21:46;;;;;;;1999.90;999.90;;;18.10;99.90;;;;;;4998610;28;20868;-80
2022/11/07 10:24:24;;;;;;;1999.90;999.90;;;18.00;99.90;;;;;;5007911;28;20026;-79
2022/11/07 10:26:50;;;;;;;1999.90;999.90;;;18.00;99.90;;;;;;5002673;28;20102;-80
2022/11/07 10:29:18;;;;;;;1999.90;999.90;;;18.10;99.90;;;;;;5009259;28;20551;-79
2022/11/07 10:32:20;;;;;;;1999.90;999.90;;;18.10;99.90;;;;;;5009248;28;20040;-81
2022/11/07 10:34:53;;;;;;;1999.90;999.90;;;18.20;99.90;;;;;;5009525;28;20033;-80
2022/11/07 10:37:19;;;;;;;1999.90;999.90;;;18.20;99.90;;;;;;5006440;28;20528;-80
2022/11/07 10:39:45;;;;;;;1999.90;999.90;;;18.10;99.90;;;;;;5013483;28;20091;-80
2022/11/07 10:42:25;;;;;;;1999.90;999.90;;;18.00;99.90;;;;;;5007336;28;20026;-80
2022/11/07 10:44:54;;;;;;;1999.90;999.90;;;17.90;99.90;;;;;;5015000;28;20026;-80
2022/11/07 10:47:24;;;;;;;1999.90;999.90;;;18.00;99.90;;;;;;5009663;28;20485;-82
2022/11/07 10:49:56;;;;;;;1999.90;999.90;;;17.90;99.90;;;;;;5009322;28;20382;-78
2022/11/07 10:52:24;;;;;;;1999.90;999.90;;;17.80;99.90;;;;;;5006657;28;20033;-80
2022/11/07 10:54:49;;;;;;;1999.90;999.90;;;17.90;99.90;;;;;;5009145;28;20083;-79
2022/11/07 10:57:21;;;;;;;1999.90;999.90;;;17.80;99.90;;;;;;5009148;28;20026;-79
2022/11/07 10:59:50;;;;;;;1999.90;999.90;;;17.80;99.90;;;;;;5007998;28;20125;-80
2022/11/07 11:02:19;;;;;;;1999.90;999.90;;;18.00;99.90;;;;;;5008939;28;20065;-79
2022/11/07 11:04:50;;;;;;;1999.90;999.90;;;18.20;99.90;;;;;;5013796;28;20025;-79
2022/11/07 11:07:16;;;;;;;1999.90;999.90;;;18.20;99.90;;;;;;5002006;28;20036;-78
2022/11/07 11:09:53;;;;;;;1999.90;999.90;;;18.30;99.90;;;;;;5017306;28;20117;-78
2022/11/07 11:12:33;;;;;;;1999.90;999.90;;;18.40;99.90;;;;;;5007405;28;20022;-79
2022/11/07 11:15:15;;;;;;;1999.90;999.90;;;18.50;99.90;;;;;;4980176;28;20025;-79
2022/11/07 11:17:41;;;;;;;1999.90;999.90;;;18.40;99.90;;;;;;5020678;28;20017;-78
2022/11/07 11:20:38;;;;;;;1999.90;999.90;;;18.40;99.90;;;;;;4991514;28;20033;-78
2022/11/07 11:23:17;;;;;;;1999.90;999.90;;;18.40;99.90;;;;;;5018405;28;20030;-80
2022/11/07 11:25:48;;;;;;;1999.90;999.90;;;18.40;99.90;;;;;;5013856;28;20109;-78
2022/11/07 11:28:32;;;;;;;1999.90;999.90;;;18.40;99.90;;;;;;5016337;28;20030;-77
2022/11/07 11:31:11;;;;;;;1999.90;999.90;;;18.30;99.90;;;;;;5003403;28;20073;-79
2022/11/07 11:33:46;;;;;;;1999.90;999.90;;;18.60;99.90;;;;;;5014185;28;20488;-78
2022/11/07 11:36:22;;;;;;;1999.90;999.90;;;19.00;99.90;;;;;;5024694;28;20033;-79
2022/11/07 11:38:53;;;;;;;1999.90;999.90;;;19.00;99.90;;;;;;5013139;28;20041;-79
2022/11/07 11:41:42;;;;;;;1999.90;999.90;;;19.30;99.90;;;;;;5011726;28;20067;-79
2022/11/07 11:44:20;;;;;;;1999.90;999.90;;;19.40;99.90;;;;;;4997567;28;20038;-79
2022/11/07 11:47:07;;;;;;;1999.90;999.90;;;19.50;99.90;;;;;;5012757;28;20452;-78
2022/11/07 11:49:59;;;;;;;1999.90;999.90;;;19.20;99.90;;;;;;5012377;28;20034;-77
2022/11/07 11:52:26;;;;;;;1999.90;999.90;;;18.90;99.90;;;;;;5020030;28;20064;-78
2022/11/07 11:54:55;;;;;;;1999.90;999.90;;;18.70;99.90;;;;;;4995966;28;20084;-79
2022/11/07 11:57:43;;;;;;;1999.90;999.90;;;18.70;99.90;;;;;;4993708;28;20121;-80
2022/11/07 12:00:08;;;;;;;1999.90;999.90;;;18.60;99.90;;;;;;4985241;28;20505;-79
2022/11/07 12:02:55;;;;;;;1999.90;999.90;;;18.50;99.90;;;;;;4990376;28;20031;-79
2022/11/07 12:05:55;;;;;;;1999.90;999.90;;;18.20;99.90;;;;;;4980362;28;20035;-80
2022/11/07 12:08:54;;;;;;;1999.90;999.90;;;18.30;99.90;;;;;;4990567;28;20026;-80
2022/11/07 12:11:47;;;;;;;1999.90;999.90;;;18.30;99.90;;;;;;4990919;28;20040;-79
2022/11/07 12:14:36;;;;;;;1999.90;999.90;;;18.50;99.90;;;;;;4989586;28;20054;-80
2022/11/07 12:17:17;;;;;;;1999.90;999.90;;;18.40;99.90;;;;;;4991784;28;20483;-80
2022/11/07 12:20:01;;;;;;;1999.90;999.90;;;18.50;99.90;;;;;;4991175;28;20030;-79
2022/11/07 12:22:36;;;;;;;1999.90;999.90;;;18.40;99.90;;;;;;4990210;28;20473;-79